sensor_id;sensor_type;location;lat;lon;timestamp;pressure;altitude;pressure_sealevel;temperature;humidity
6829;BME280;17930;48.592;8.868;2024-01-15T00:00:10;95778.38;;;-1.51;100.00
6829;BME280;17930;48.592;8.868;2024-01-15T00:02:38;95781.50;;;-1.49;100.00
6829;BME280;17930;48.592;8.868;2024-01-15T00:05:05;95786.22;;;-1.64;100.00
6829;BME280;17930;48.592;8.868;2024-01-15T00:07:32;95775.66;;;-1.79;100.00
6829;BME280;17930;48.592;8.868;2024-01-15T00:09:59;95775.94;;;-1.57;100.00
6829;BME280;17930;48.592;8.868;2024-01-15T00:12:25;95774.91;;;-1.68;100.00
6829;BME280;17930;48.592;8.868;2024-01-15T00:14:52;95776.69;;;-1.57;100.00
6829;BME280;17930;48.592;8.868;2024-01-15T00:17:19;95776.34;;;-1.72;100.00
6829;BME280;17930;48.592;8.868;2024-01-15T00:19:47;95779.91;;;-1.73;100.00
6829;BME280;17930;48.592;8.868;2024-01-15T00:22:14;95785.13;;;-1.68;100.00
6829;BME280;17930;48.592;8.868;2024-01-15T00:24:40;95780.94;;;-1.51;100.00
6829;BME280;17930;48.592;8.868;2024-01-15T00:27:07;95785.03;;;-1.50;100.00
6829;BME280;17930;48.592;8.868;2024-01-15T00:29:34;95788.63;;;-1.40;100.00
6829;BME280;17930;48.592;8.868;2024-01-15T00:32:00;95775.03;;;-1.40;100.00
6829;BME280;17930;48.592;8.868;2024-01-15T00:34:27;95779.38;;;-1.41;100.00
6829;BME280;17930;48.592;8.868;2024-01-15T00:36:55;95775.25;;;-1.42;100.00
6829;BME280;17930;48.592;8.868;2024-01-15T00:39:22;95769.81;;;-1.45;100.00
6829;BME280;17930;48.592;8.868;2024-01-15T00:41:49;95760.59;;;-1.35;100.00
6829;BME280;17930;48.592;8.868;2024-01-15T00:44:16;95764.59;;;-1.50;100.00
6829;BME280;17930;48.592;8.868;2024-01-15T00:46:43;95768.47;;;-1.59;100.00
6829;BME280;17930;48.592;8.868;2024-01-15T00:49:11;95765.38;;;-1.61;100.00
6829;BME280;17930;48.592;8.868;2024-01-15T00:51:39;95765.78;;;-1.64;100.00
6829;BME280;17930;48.592;8.868;2024-01-15T00:54:07;95755.69;;;-1.70;100.00
6829;BME280;17930;48.592;8.868;2024-01-15T00:56:33;95760.69;;;-1.64;100.00
6829;BME280;17930;48.592;8.868;2024-01-15T00:59:00;95755.91;;;-1.72;100.00
6829;BME280;17930;48.592;8.868;2024-01-15T01:01:27;95753.66;;;-1.80;100.00
6829;BME280;17930;48.592;8.868;2024-01-15T01:03:54;95757.34;;;-1.87;100.00
6829;BME280;17930;48.592;8.868;2024-01-15T01:06:21;95755.69;;;-1.82;100.00
6829;BME280;17930;48.592;8.868;2024-01-15T01:08:47;95758.00;;;-1.92;100.00
6829;BME280;17930;48.592;8.868;2024-01-15T01:11:16;95757.44;;;-1.82;100.00
6829;BME280;17930;48.592;8.868;2024-01-15T01:13:43;95760.44;;;-1.74;100.00
6829;BME280;17930;48.592;8.868;2024-01-15T01:16:09;95760.22;;;-1.72;100.00
6829;BME280;17930;48.592;8.868;2024-01-15T01:18:36;95751.34;;;-1.70;100.00
6829;BME280;17930;48.592;8.868;2024-01-15T01:21:03;95750.91;;;-1.67;100.00
6829;BME280;17930;48.592;8.868;2024-01-15T01:23:30;95760.03;;;-1.59;100.00
6829;BME280;17930;48.592;8.868;2024-01-15T01:25:56;95755.38;;;-1.51;100.00
6829;BME280;17930;48.592;8.868;2024-01-15T01:28:25;95750.28;;;-1.51;100.00
6829;BME280;17930;48.592;8.868;2024-01-15T01:30:51;95756.94;;;-1.50;100.00
6829;BME280;17930;48.592;8.868;2024-01-15T01:33:19;95746.69;;;-1.50;100.00
6829;BME280;17930;48.592;8.868;2024-01-15T01:35:46;95743.59;;;-1.52;100.00
6829;BME280;17930;48.592;8.868;2024-01-15T01:38:13;95744.06;;;-1.55;100.00
6829;BME280;17930;48.592;8.868;2024-01-15T01:40:40;95740.91;;;-1.57;100.00
6829;BME280;17930;48.592;8.868;2024-01-15T01:43:08;95740.91;;;-1.57;100.00
6829;BME280;17930;48.592;8.868;2024-01-15T01:45:37;95732.25;;;-1.56;100.00
6829;BME280;17930;48.592;8.868;2024-01-15T01:48:05;95741.81;;;-1.63;100.00
6829;BME280;17930;48.592;8.868;2024-01-15T01:50:32;95733.59;;;-1.65;100.00
6829;BME280;17930;48.592;8.868;2024-01-15T01:52:59;95739.59;;;-1.71;100.00
6829;BME280;17930;48.592;8.868;2024-01-15T01:55:29;95737.25;;;-1.72;100.00
6829;BME280;17930;48.592;8.868;2024-01-15T01:57:59;95737.69;;;-1.75;100.00
6829;BME280;17930;48.592;8.868;2024-01-15T02:00:30;95734.59;;;-1.77;100.00
6829;BME280;17930;48.592;8.868;2024-01-15T02:02:58;95729.38;;;-1.71;100.00
6829;BME280;17930;48.592;8.868;2024-01-15T02:05:27;95732.47;;;-1.69;100.00
6829;BME280;17930;48.592;8.868;2024-01-15T02:07:54;95739.16;;;-1.68;100.00
6829;BME280;17930;48.592;8.868;2024-01-15T02:10:21;95727.38;;;-1.69;100.00
6829;BME280;17930;48.592;8.868;2024-01-15T02:12:48;95725.81;;;-1.70;100.00
6829;BME280;17930;48.592;8.868;2024-01-15T02:15:15;95715.59;;;-1.70;100.00
6829;BME280;17930;48.592;8.868;2024-01-15T02:17:57;95713.69;;;-1.74;100.00
6829;BME280;17930;48.592;8.868;2024-01-15T02:20:25;95712.59;;;-1.78;100.00
6829;BME280;17930;48.592;8.868;2024-01-15T02:23:01;95714.91;;;-1.77;100.00
6829;BME280;17930;48.592;8.868;2024-01-15T02:25:28;95720.16;;;-1.83;100.00
6829;BME280;17930;48.592;8.868;2024-01-15T02:27:56;95714.25;;;-1.84;100.00
6829;BME280;17930;48.592;8.868;2024-01-15T02:30:23;95709.13;;;-1.84;100.00
6829;BME280;17930;48.592;8.868;2024-01-15T02:32:52;95705.72;;;-1.78;100.00
6829;BME280;17930;48.592;8.868;2024-01-15T02:35:19;95711.59;;;-1.89;100.00
6829;BME280;17930;48.592;8.868;2024-01-15T02:37:45;95705.03;;;-1.85;100.00
6829;BME280;17930;48.592;8.868;2024-01-15T02:40:14;95706.91;;;-1.92;100.00
6829;BME280;17930;48.592;8.868;2024-01-15T02:42:40;95697.69;;;-1.93;100.00
6829;BME280;17930;48.592;8.868;2024-01-15T02:45:08;95704.91;;;-1.90;100.00
6829;BME280;17930;48.592;8.868;2024-01-15T02:47:35;95703.59;;;-1.81;100.00
6829;BME280;17930;48.592;8.868;2024-01-15T02:50:01;95709.13;;;-1.84;100.00
6829;BME280;17930;48.592;8.868;2024-01-15T02:52:28;95701.59;;;-1.79;100.00
6829;BME280;17930;48.592;8.868;2024-01-15T02:54:55;95704.47;;;-1.75;100.00
6829;BME280;17930;48.592;8.868;2024-01-15T02:57:23;95711.06;;;-1.68;100.00
6829;BME280;17930;48.592;8.868;2024-01-15T02:59:50;95706.94;;;-1.46;100.00
6829;BME280;17930;48.592;8.868;2024-01-15T03:02:17;95716.25;;;-1.40;100.00
6829;BME280;17930;48.592;8.868;2024-01-15T03:04:44;95722.47;;;-1.36;100.00
6829;BME280;17930;48.592;8.868;2024-01-15T03:07:11;95727.16;;;-1.33;100.00
6829;BME280;17930;48.592;8.868;2024-01-15T03:09:38;95736.06;;;-1.24;100.00
6829;BME280;17930;48.592;8.868;2024-01-15T03:12:05;95742.38;;;-1.27;100.00
6829;BME280;17930;48.592;8.868;2024-01-15T03:14:33;95740.72;;;-1.21;100.00
6829;BME280;17930;48.592;8.868;2024-01-15T03:17:03;95740.72;;;-1.21;100.00
6829;BME280;17930;48.592;8.868;2024-01-15T03:19:30;95743.28;;;-1.21;100.00
6829;BME280;17930;48.592;8.868;2024-01-15T03:21:56;95747.38;;;-1.20;100.00
6829;BME280;17930;48.592;8.868;2024-01-15T03:24:23;95742.59;;;-1.17;100.00
6829;BME280;17930;48.592;8.868;2024-01-15T03:26:50;95746.50;;;-1.14;100.00
6829;BME280;17930;48.592;8.868;2024-01-15T03:29:17;95744.94;;;-1.15;100.00
6829;BME280;17930;48.592;8.868;2024-01-15T03:31:45;95738.91;;;-1.09;100.00
6829;BME280;17930;48.592;8.868;2024-01-15T03:34:12;95730.69;;;-1.11;100.00
6829;BME280;17930;48.592;8.868;2024-01-15T03:36:38;95737.34;;;-1.10;100.00
6829;BME280;17930;48.592;8.868;2024-01-15T03:39:06;95741.91;;;-1.12;100.00
6829;BME280;17930;48.592;8.868;2024-01-15T03:41:33;95734.25;;;-1.12;100.00
6829;BME280;17930;48.592;8.868;2024-01-15T03:43:59;95739.00;;;-1.16;100.00
6829;BME280;17930;48.592;8.868;2024-01-15T03:46:27;95728.00;;;-1.05;100.00
6829;BME280;17930;48.592;8.868;2024-01-15T03:48:55;95729.13;;;-1.12;100.00
6829;BME280;17930;48.592;8.868;2024-01-15T03:51:23;95730.78;;;-1.06;100.00
6829;BME280;17930;48.592;8.868;2024-01-15T03:53:50;95723.47;;;-1.03;100.00
6829;BME280;17930;48.592;8.868;2024-01-15T03:56:16;95728.22;;;-1.06;100.00
6829;BME280;17930;48.592;8.868;2024-01-15T03:58:43;95731.91;;;-1.14;100.00
6829;BME280;17930;48.592;8.868;2024-01-15T04:01:10;95727.13;;;-1.10;100.00
6829;BME280;17930;48.592;8.868;2024-01-15T04:03:37;95724.91;;;-1.07;100.00
6829;BME280;17930;48.592;8.868;2024-01-15T04:06:05;95724.91;;;-1.07;100.00
6829;BME280;17930;48.592;8.868;2024-01-15T04:08:32;95725.78;;;-1.02;100.00
6829;BME280;17930;48.592;8.868;2024-01-15T04:10:59;95723.78;;;-1.00;100.00
6829;BME280;17930;48.592;8.868;2024-01-15T04:13:27;95715.09;;;-0.99;100.00
6829;BME280;17930;48.592;8.868;2024-01-15T04:15:53;95712.31;;;-0.97;100.00
6829;BME280;17930;48.592;8.868;2024-01-15T04:18:20;95710.44;;;-1.02;100.00
6829;BME280;17930;48.592;8.868;2024-01-15T04:20:47;95717.22;;;-0.96;100.00
6829;BME280;17930;48.592;8.868;2024-01-15T04:23:15;95707.97;;;-0.97;100.00
6829;BME280;17930;48.592;8.868;2024-01-15T04:25:41;95713.53;;;-1.00;100.00
6829;BME280;17930;48.592;8.868;2024-01-15T04:28:08;95714.09;;;-0.98;100.00
6829;BME280;17930;48.592;8.868;2024-01-15T04:30:35;95715.56;;;-1.02;100.00
6829;BME280;17930;48.592;8.868;2024-01-15T04:33:02;95713.88;;;-1.07;100.00
6829;BME280;17930;48.592;8.868;2024-01-15T04:35:29;95698.44;;;-1.12;100.00
6829;BME280;17930;48.592;8.868;2024-01-15T04:37:56;95705.25;;;-1.18;100.00
6829;BME280;17930;48.592;8.868;2024-01-15T04:40:24;95702.44;;;-1.16;100.00
6829;BME280;17930;48.592;8.868;2024-01-15T04:42:53;95704.69;;;-1.20;100.00
6829;BME280;17930;48.592;8.868;2024-01-15T04:45:19;95711.56;;;-1.20;100.00
6829;BME280;17930;48.592;8.868;2024-01-15T04:47:48;95701.47;;;-1.15;100.00
6829;BME280;17930;48.592;8.868;2024-01-15T04:50:14;95698.91;;;-1.15;100.00
6829;BME280;17930;48.592;8.868;2024-01-15T04:52:41;95701.00;;;-1.12;100.00
6829;BME280;17930;48.592;8.868;2024-01-15T04:55:08;95694.00;;;-1.05;100.00
6829;BME280;17930;48.592;8.868;2024-01-15T04:57:36;95693.19;;;-1.06;100.00
6829;BME280;17930;48.592;8.868;2024-01-15T05:00:04;95676.38;;;-0.91;100.00
6829;BME280;17930;48.592;8.868;2024-01-15T05:02:30;95683.97;;;-0.96;100.00
6829;BME280;17930;48.592;8.868;2024-01-15T05:04:57;95686.25;;;-0.83;100.00
6829;BME280;17930;48.592;8.868;2024-01-15T05:07:24;95679.94;;;-0.92;100.00
6829;BME280;17930;48.592;8.868;2024-01-15T05:09:50;95684.03;;;-0.91;100.00
6829;BME280;17930;48.592;8.868;2024-01-15T05:12:17;95680.94;;;-0.93;100.00
6829;BME280;17930;48.592;8.868;2024-01-15T05:14:45;95691.72;;;-0.91;100.00
6829;BME280;17930;48.592;8.868;2024-01-15T05:17:11;95699.31;;;-0.96;100.00
6829;BME280;17930;48.592;8.868;2024-01-15T05:19:38;95692.28;;;-0.89;100.00
6829;BME280;17930;48.592;8.868;2024-01-15T05:22:05;95687.84;;;-0.93;100.00
6829;BME280;17930;48.592;8.868;2024-01-15T05:24:31;95687.91;;;-0.77;100.00
6829;BME280;17930;48.592;8.868;2024-01-15T05:26:58;95688.28;;;-0.85;100.00
6829;BME280;17930;48.592;8.868;2024-01-15T05:29:24;95688.16;;;-0.90;100.00
6829;BME280;17930;48.592;8.868;2024-01-15T05:31:53;95687.25;;;-0.84;100.00
6829;BME280;17930;48.592;8.868;2024-01-15T05:34:20;95680.44;;;-0.78;100.00
6829;BME280;17930;48.592;8.868;2024-01-15T05:36:47;95675.09;;;-0.77;100.00
6829;BME280;17930;48.592;8.868;2024-01-15T05:39:14;95678.13;;;-0.80;100.00
6829;BME280;17930;48.592;8.868;2024-01-15T05:41:40;95672.47;;;-0.82;100.00
6829;BME280;17930;48.592;8.868;2024-01-15T05:44:07;95677.00;;;-0.84;100.00
6829;BME280;17930;48.592;8.868;2024-01-15T05:46:34;95677.47;;;-0.87;100.00
6829;BME280;17930;48.592;8.868;2024-01-15T05:49:02;95674.84;;;-0.92;100.00
6829;BME280;17930;48.592;8.868;2024-01-15T05:51:28;95673.28;;;-0.93;100.00
6829;BME280;17930;48.592;8.868;2024-01-15T05:53:55;95673.81;;;-0.91;100.00
6829;BME280;17930;48.592;8.868;2024-01-15T05:56:22;95668.97;;;-1.03;100.00
6829;BME280;17930;48.592;8.868;2024-01-15T05:58:49;95680.84;;;-0.98;100.00
6829;BME280;17930;48.592;8.868;2024-01-15T06:01:16;95683.31;;;-1.02;100.00
6829;BME280;17930;48.592;8.868;2024-01-15T06:03:42;95674.94;;;-0.98;100.00
6829;BME280;17930;48.592;8.868;2024-01-15T06:06:11;95681.41;;;-0.96;100.00
6829;BME280;17930;48.592;8.868;2024-01-15T06:08:37;95683.84;;;-1.01;100.00
6829;BME280;17930;48.592;8.868;2024-01-15T06:11:04;95676.63;;;-1.03;100.00
6829;BME280;17930;48.592;8.868;2024-01-15T06:13:31;95673.16;;;-0.98;100.00
6829;BME280;17930;48.592;8.868;2024-01-15T06:15:57;95672.31;;;-1.03;100.00
6829;BME280;17930;48.592;8.868;2024-01-15T06:18:24;95671.44;;;-1.08;100.00
6829;BME280;17930;48.592;8.868;2024-01-15T06:20:50;95673.53;;;-1.05;100.00
6829;BME280;17930;48.592;8.868;2024-01-15T06:23:18;95667.31;;;-1.09;100.00
6829;BME280;17930;48.592;8.868;2024-01-15T06:25:44;95662.19;;;-1.09;100.00
6829;BME280;17930;48.592;8.868;2024-01-15T06:28:11;95663.63;;;-1.02;100.00
6829;BME280;17930;48.592;8.868;2024-01-15T06:30:37;95656.63;;;-1.06;100.00
6829;BME280;17930;48.592;8.868;2024-01-15T06:33:04;95660.97;;;-1.07;100.00
6829;BME280;17930;48.592;8.868;2024-01-15T06:35:31;95663.75;;;-1.08;100.00
6829;BME280;17930;48.592;8.868;2024-01-15T06:37:59;95650.53;;;-1.05;100.00
6829;BME280;17930;48.592;8.868;2024-01-15T06:40:27;95648.38;;;-0.97;100.00
6829;BME280;17930;48.592;8.868;2024-01-15T06:42:54;95641.00;;;-0.94;100.00
6829;BME280;17930;48.592;8.868;2024-01-15T06:45:20;95643.50;;;-0.99;100.00
6829;BME280;17930;48.592;8.868;2024-01-15T06:47:47;95650.28;;;-1.04;100.00
6829;BME280;17930;48.592;8.868;2024-01-15T06:50:14;95628.16;;;-0.99;100.00
6829;BME280;17930;48.592;8.868;2024-01-15T06:52:40;95625.81;;;-1.00;100.00
6829;BME280;17930;48.592;8.868;2024-01-15T06:55:07;95616.34;;;-1.00;100.00
6829;BME280;17930;48.592;8.868;2024-01-15T06:57:35;95623.03;;;-0.99;100.00
6829;BME280;17930;48.592;8.868;2024-01-15T07:00:02;95631.06;;;-1.06;100.00
6829;BME280;17930;48.592;8.868;2024-01-15T07:02:33;95623.94;;;-1.04;100.00
6829;BME280;17930;48.592;8.868;2024-01-15T07:05:00;95617.34;;;-1.01;100.00
6829;BME280;17930;48.592;8.868;2024-01-15T07:07:26;95614.38;;;-1.09;100.00
6829;BME280;17930;48.592;8.868;2024-01-15T07:09:55;95618.66;;;-1.14;100.00
6829;BME280;17930;48.592;8.868;2024-01-15T07:12:22;95612.75;;;-1.15;100.00
6829;BME280;17930;48.592;8.868;2024-01-15T07:14:50;95608.03;;;-1.06;100.00
6829;BME280;17930;48.592;8.868;2024-01-15T07:17:16;95619.38;;;-1.02;100.00
6829;BME280;17930;48.592;8.868;2024-01-15T07:19:43;95615.25;;;-1.03;100.00
6829;BME280;17930;48.592;8.868;2024-01-15T07:22:10;95615.91;;;-0.97;100.00
6829;BME280;17930;48.592;8.868;2024-01-15T07:24:36;95613.44;;;-0.92;100.00
6829;BME280;17930;48.592;8.868;2024-01-15T07:27:06;95618.38;;;-1.02;100.00
6829;BME280;17930;48.592;8.868;2024-01-15T07:29:34;95617.47;;;-0.96;100.00
6829;BME280;17930;48.592;8.868;2024-01-15T07:32:05;95618.63;;;-0.87;100.00
6829;BME280;17930;48.592;8.868;2024-01-15T07:34:33;95616.84;;;-0.86;100.00
6829;BME280;17930;48.592;8.868;2024-01-15T07:36:59;95620.00;;;-0.96;100.00
6829;BME280;17930;48.592;8.868;2024-01-15T07:39:26;95615.78;;;-0.74;100.00
6829;BME280;17930;48.592;8.868;2024-01-15T07:41:54;95613.41;;;-0.80;100.00
6829;BME280;17930;48.592;8.868;2024-01-15T07:44:21;95603.41;;;-0.82;100.00
6829;BME280;17930;48.592;8.868;2024-01-15T07:46:48;95610.59;;;-0.79;100.00
6829;BME280;17930;48.592;8.868;2024-01-15T07:49:15;95614.34;;;-0.70;100.00
6829;BME280;17930;48.592;8.868;2024-01-15T07:51:43;95617.28;;;-0.61;100.00
6829;BME280;17930;48.592;8.868;2024-01-15T07:54:11;95613.97;;;-0.62;100.00
6829;BME280;17930;48.592;8.868;2024-01-15T07:56:53;95613.69;;;-0.49;100.00
6829;BME280;17930;48.592;8.868;2024-01-15T07:59:20;95612.13;;;-0.50;100.00
6829;BME280;17930;48.592;8.868;2024-01-15T08:01:46;95613.13;;;-0.51;100.00
6829;BME280;17930;48.592;8.868;2024-01-15T08:04:13;95613.91;;;-0.51;100.00
6829;BME280;17930;48.592;8.868;2024-01-15T08:06:41;95614.78;;;-0.45;100.00
6829;BME280;17930;48.592;8.868;2024-01-15T08:09:08;95616.31;;;-0.44;100.00
6829;BME280;17930;48.592;8.868;2024-01-15T08:11:39;95614.84;;;-0.40;100.00
6829;BME280;17930;48.592;8.868;2024-01-15T08:14:06;95614.94;;;-0.35;100.00
6829;BME280;17930;48.592;8.868;2024-01-15T08:16:32;95605.22;;;-0.33;100.00
6829;BME280;17930;48.592;8.868;2024-01-15T08:18:59;95615.47;;;-0.33;100.00
6829;BME280;17930;48.592;8.868;2024-01-15T08:21:26;95614.78;;;-0.29;100.00
6829;BME280;17930;48.592;8.868;2024-01-15T08:23:56;95620.97;;;-0.25;100.00
6829;BME280;17930;48.592;8.868;2024-01-15T08:26:23;95620.22;;;-0.25;100.00
6829;BME280;17930;48.592;8.868;2024-01-15T08:28:50;95620.75;;;-0.23;100.00
6829;BME280;17930;48.592;8.868;2024-01-15T08:31:17;95635.41;;;-0.19;100.00
6829;BME280;17930;48.592;8.868;2024-01-15T08:33:46;95625.97;;;-0.18;100.00
6829;BME280;17930;48.592;8.868;2024-01-15T08:36:13;95624.56;;;-0.09;100.00
6829;BME280;17930;48.592;8.868;2024-01-15T08:38:40;95619.72;;;-0.06;100.00
6829;BME280;17930;48.592;8.868;2024-01-15T08:41:08;95614.38;;;-0.04;100.00
6829;BME280;17930;48.592;8.868;2024-01-15T08:43:34;95609.81;;;-0.02;100.00
6829;BME280;17930;48.592;8.868;2024-01-15T08:46:02;95605.78;;;0.01;100.00
6829;BME280;17930;48.592;8.868;2024-01-15T08:48:32;95610.09;;;0.01;100.00
6829;BME280;17930;48.592;8.868;2024-01-15T08:50:59;95615.09;;;0.07;100.00
6829;BME280;17930;48.592;8.868;2024-01-15T08:53:26;95623.91;;;0.16;100.00
6829;BME280;17930;48.592;8.868;2024-01-15T08:55:53;95628.56;;;0.19;100.00
6829;BME280;17930;48.592;8.868;2024-01-15T08:58:23;95629.03;;;0.16;100.00
6829;BME280;17930;48.592;8.868;2024-01-15T09:00:50;95619.41;;;0.23;100.00
6829;BME280;17930;48.592;8.868;2024-01-15T09:03:17;95619.69;;;0.27;100.00
6829;BME280;17930;48.592;8.868;2024-01-15T09:05:44;95621.03;;;0.29;100.00
6829;BME280;17930;48.592;8.868;2024-01-15T09:08:11;95610.84;;;0.34;100.00
6829;BME280;17930;48.592;8.868;2024-01-15T09:10:38;95606.72;;;0.33;100.00
6829;BME280;17930;48.592;8.868;2024-01-15T09:13:06;95604.69;;;0.35;100.00
6829;BME280;17930;48.592;8.868;2024-01-15T09:15:34;95598.31;;;0.38;100.00
6829;BME280;17930;48.592;8.868;2024-01-15T09:18:03;95588.03;;;0.54;100.00
6829;BME280;17930;48.592;8.868;2024-01-15T09:20:30;95607.47;;;0.50;100.00
6829;BME280;17930;48.592;8.868;2024-01-15T09:22:57;95607.50;;;0.55;100.00
6829;BME280;17930;48.592;8.868;2024-01-15T09:25:25;95605.97;;;0.54;100.00
6829;BME280;17930;48.592;8.868;2024-01-15T09:27:52;95597.38;;;0.65;100.00
6829;BME280;17930;48.592;8.868;2024-01-15T09:30:19;95596.63;;;0.64;100.00
6829;BME280;17930;48.592;8.868;2024-01-15T09:32:47;95581.53;;;0.68;100.00
6829;BME280;17930;48.592;8.868;2024-01-15T09:35:14;95582.06;;;0.70;100.00
6829;BME280;17930;48.592;8.868;2024-01-15T09:37:41;95581.59;;;0.73;100.00
6829;BME280;17930;48.592;8.868;2024-01-15T09:40:12;95571.91;;;0.80;100.00
6829;BME280;17930;48.592;8.868;2024-01-15T09:42:41;95566.06;;;0.84;100.00
6829;BME280;17930;48.592;8.868;2024-01-15T09:45:08;95560.16;;;0.84;100.00
6829;BME280;17930;48.592;8.868;2024-01-15T09:47:36;95572.75;;;0.85;100.00
6829;BME280;17930;48.592;8.868;2024-01-15T09:50:06;95569.50;;;0.95;100.00
6829;BME280;17930;48.592;8.868;2024-01-15T09:52:34;95575.59;;;0.89;100.00
6829;BME280;17930;48.592;8.868;2024-01-15T09:55:03;95566.47;;;0.98;100.00
6829;BME280;17930;48.592;8.868;2024-01-15T09:57:31;95566.00;;;1.01;100.00
6829;BME280;17930;48.592;8.868;2024-01-15T09:59:59;95568.50;;;0.96;100.00
6829;BME280;17930;48.592;8.868;2024-01-15T10:02:29;95568.50;;;0.96;100.00
6829;BME280;17930;48.592;8.868;2024-01-15T10:04:57;95568.00;;;0.99;100.00
6829;BME280;17930;48.592;8.868;2024-01-15T10:07:25;95576.75;;;0.98;100.00
6829;BME280;17930;48.592;8.868;2024-01-15T10:09:53;95578.28;;;0.99;100.00
6829;BME280;17930;48.592;8.868;2024-01-15T10:12:21;95563.19;;;1.02;100.00
6829;BME280;17930;48.592;8.868;2024-01-15T10:14:48;95558.34;;;1.05;100.00
6829;BME280;17930;48.592;8.868;2024-01-15T10:17:16;95560.97;;;1.10;100.00
6829;BME280;17930;48.592;8.868;2024-01-15T10:19:45;95559.69;;;1.13;100.00
6829;BME280;17930;48.592;8.868;2024-01-15T10:22:14;95555.94;;;1.20;100.00
6829;BME280;17930;48.592;8.868;2024-01-15T10:24:42;95559.00;;;1.22;100.00
6829;BME280;17930;48.592;8.868;2024-01-15T10:27:09;95550.41;;;1.33;100.00
6829;BME280;17930;48.592;8.868;2024-01-15T10:29:36;95548.59;;;1.34;100.00
6829;BME280;17930;48.592;8.868;2024-01-15T10:32:06;95547.75;;;1.28;100.00
6829;BME280;17930;48.592;8.868;2024-01-15T10:34:33;95554.63;;;1.23;100.00
6829;BME280;17930;48.592;8.868;2024-01-15T10:37:03;95554.31;;;1.14;100.00
6829;BME280;17930;48.592;8.868;2024-01-15T10:39:30;95544.63;;;1.21;100.00
6829;BME280;17930;48.592;8.868;2024-01-15T10:41:59;95544.53;;;1.11;100.00
6829;BME280;17930;48.592;8.868;2024-01-15T10:44:26;95532.66;;;1.05;100.00
6829;BME280;17930;48.592;8.868;2024-01-15T10:46:54;95541.94;;;1.06;100.00
6829;BME280;17930;48.592;8.868;2024-01-15T10:49:22;95528.63;;;1.14;100.00
6829;BME280;17930;48.592;8.868;2024-01-15T10:51:52;95530.78;;;1.22;100.00
6829;BME280;17930;48.592;8.868;2024-01-15T10:54:19;95526.56;;;1.11;100.00
6829;BME280;17930;48.592;8.868;2024-01-15T10:56:46;95533.25;;;1.12;100.00
6829;BME280;17930;48.592;8.868;2024-01-15T10:59:15;95534.41;;;1.26;100.00
6829;BME280;17930;48.592;8.868;2024-01-15T11:01:42;95531.69;;;1.11;100.00
6829;BME280;17930;48.592;8.868;2024-01-15T11:04:11;95526.47;;;1.01;100.00
6829;BME280;17930;48.592;8.868;2024-01-15T11:06:42;95537.38;;;1.13;100.00
6829;BME280;17930;48.592;8.868;2024-01-15T11:09:12;95532.28;;;1.18;100.00
6829;BME280;17930;48.592;8.868;2024-01-15T11:11:41;95533.50;;;1.11;100.00
6829;BME280;17930;48.592;8.868;2024-01-15T11:14:09;95526.28;;;1.08;100.00
6829;BME280;17930;48.592;8.868;2024-01-15T11:16:57;95521.44;;;1.11;100.00
6829;BME280;17930;48.592;8.868;2024-01-15T11:19:25;95516.78;;;1.08;100.00
6829;BME280;17930;48.592;8.868;2024-01-15T11:21:51;95515.25;;;1.07;100.00
6829;BME280;17930;48.592;8.868;2024-01-15T11:24:35;95513.78;;;1.16;100.00
6829;BME280;17930;48.592;8.868;2024-01-15T11:27:02;95523.97;;;1.06;100.00
6829;BME280;17930;48.592;8.868;2024-01-15T11:29:30;95501.84;;;1.01;100.00
6829;BME280;17930;48.592;8.868;2024-01-15T11:31:59;95505.94;;;1.01;100.00
6829;BME280;17930;48.592;8.868;2024-01-15T11:34:56;95507.06;;;1.10;100.00
6829;BME280;17930;48.592;8.868;2024-01-15T11:37:28;95522.41;;;1.05;100.00
6829;BME280;17930;48.592;8.868;2024-01-15T11:39:55;95516.66;;;0.94;100.00
6829;BME280;17930;48.592;8.868;2024-01-15T11:42:22;95524.53;;;0.87;100.00
6829;BME280;17930;48.592;8.868;2024-01-15T11:44:49;95523.78;;;0.87;100.00
6829;BME280;17930;48.592;8.868;2024-01-15T11:47:35;95519.72;;;0.91;100.00
6829;BME280;17930;48.592;8.868;2024-01-15T11:50:07;95510.88;;;0.82;100.00
6829;BME280;17930;48.592;8.868;2024-01-15T11:52:35;95500.63;;;0.82;100.00
6829;BME280;17930;48.592;8.868;2024-01-15T11:55:11;95508.16;;;0.67;100.00
6829;BME280;17930;48.592;8.868;2024-01-15T11:57:45;95515.41;;;0.49;100.00
6829;BME280;17930;48.592;8.868;2024-01-15T12:00:13;95515.19;;;0.55;100.00
6829;BME280;17930;48.592;8.868;2024-01-15T12:02:42;95524.03;;;0.64;100.00
6829;BME280;17930;48.592;8.868;2024-01-15T12:05:09;95525.19;;;0.51;100.00
6829;BME280;17930;48.592;8.868;2024-01-15T12:07:38;95517.72;;;0.50;100.00
6829;BME280;17930;48.592;8.868;2024-01-15T12:10:08;95527.03;;;0.56;100.00
6829;BME280;17930;48.592;8.868;2024-01-15T12:12:45;95519.09;;;0.57;100.00
6829;BME280;17930;48.592;8.868;2024-01-15T12:15:14;95516.09;;;0.65;100.00
6829;BME280;17930;48.592;8.868;2024-01-15T12:17:42;95523.00;;;0.65;100.00
6829;BME280;17930;48.592;8.868;2024-01-15T12:20:10;95520.34;;;0.55;100.00
6829;BME280;17930;48.592;8.868;2024-01-15T12:22:40;95503.78;;;0.41;100.00
6829;BME280;17930;48.592;8.868;2024-01-15T12:25:07;95516.16;;;0.49;100.00
6829;BME280;17930;48.592;8.868;2024-01-15T12:27:36;95514.31;;;0.45;100.00
6829;BME280;17930;48.592;8.868;2024-01-15T12:30:04;95514.50;;;0.38;100.00
6829;BME280;17930;48.592;8.868;2024-01-15T12:32:31;95522.25;;;0.43;100.00
6829;BME280;17930;48.592;8.868;2024-01-15T12:35:00;95516.38;;;0.43;100.00
6829;BME280;17930;48.592;8.868;2024-01-15T12:37:27;95518.69;;;0.44;100.00
6829;BME280;17930;48.592;8.868;2024-01-15T12:39:53;95524.09;;;0.48;100.00
6829;BME280;17930;48.592;8.868;2024-01-15T12:42:21;95525.47;;;0.55;100.00
6829;BME280;17930;48.592;8.868;2024-01-15T12:44:48;95530.41;;;0.61;100.00
6829;BME280;17930;48.592;8.868;2024-01-15T12:47:15;95532.91;;;0.56;100.00
6829;BME280;17930;48.592;8.868;2024-01-15T12:49:46;95523.94;;;0.54;100.00
6829;BME280;17930;48.592;8.868;2024-01-15T12:52:15;95525.91;;;0.47;100.00
6829;BME280;17930;48.592;8.868;2024-01-15T12:54:41;95525.47;;;0.55;100.00
6829;BME280;17930;48.592;8.868;2024-01-15T12:57:08;95528.94;;;0.65;100.00
6829;BME280;17930;48.592;8.868;2024-01-15T12:59:34;95527.38;;;0.64;100.00
6829;BME280;17930;48.592;8.868;2024-01-15T13:02:01;95522.47;;;0.63;100.00
6829;BME280;17930;48.592;8.868;2024-01-15T13:04:28;95514.75;;;0.58;100.00
6829;BME280;17930;48.592;8.868;2024-01-15T13:06:55;95530.25;;;0.68;100.00